sensor_id;sensor_type;location;lat;lon;timestamp;pressure;altitude;pressure_sealevel;temperature;humidity
70954;BME280;58618;47.490;8.736;2023-11-21T00:00:43;96074.38;;;6.99;100.00
70954;BME280;58618;47.490;8.736;2023-11-21T00:03:31;96075.66;;;7.06;100.00
70954;BME280;58618;47.490;8.736;2023-11-21T00:06:19;96070.78;;;7.00;100.00
70954;BME280;58618;47.490;8.736;2023-11-21T00:09:08;96069.00;;;6.90;100.00
70954;BME280;58618;47.490;8.736;2023-11-21T00:11:56;96077.22;;;6.87;100.00
70954;BME280;58618;47.490;8.736;2023-11-21T00:14:43;96072.59;;;6.94;100.00
70954;BME280;58618;47.490;8.736;2023-11-21T00:17:31;96067.22;;;6.91;100.00
70954;BME280;58618;47.490;8.736;2023-11-21T00:20:18;96043.91;;;6.62;100.00
70954;BME280;58618;47.490;8.736;2023-11-21T00:23:05;96064.13;;;6.89;100.00
70954;BME280;58618;47.490;8.736;2023-11-21T00:25:54;96062.34;;;6.74;100.00
70954;BME280;58618;47.490;8.736;2023-11-21T00:28:42;96060.81;;;6.83;100.00
70954;BME280;58618;47.490;8.736;2023-11-21T00:31:29;96069.75;;;7.06;100.00
70954;BME280;58618;47.490;8.736;2023-11-21T00:34:17;96074.59;;;7.12;100.00
70954;BME280;58618;47.490;8.736;2023-11-21T00:37:05;96066.63;;;7.24;100.00
70954;BME280;58618;47.490;8.736;2023-11-21T00:39:53;96058.66;;;7.26;100.00
70954;BME280;58618;47.490;8.736;2023-11-21T00:42:43;96057.41;;;7.18;100.00
70954;BME280;58618;47.490;8.736;2023-11-21T00:45:30;96052.31;;;7.08;100.00
70954;BME280;58618;47.490;8.736;2023-11-21T00:48:18;96044.09;;;7.06;100.00
70954;BME280;58618;47.490;8.736;2023-11-21T00:51:05;96050.53;;;7.08;100.00
70954;BME280;58618;47.490;8.736;2023-11-21T00:53:53;96051.53;;;7.12;100.00
70954;BME280;58618;47.490;8.736;2023-11-21T00:56:40;96049.25;;;6.96;100.00
70954;BME280;58618;47.490;8.736;2023-11-21T00:59:29;96047.97;;;6.93;100.00
70954;BME280;58618;47.490;8.736;2023-11-21T01:02:16;96047.94;;;7.03;100.00
70954;BME280;58618;47.490;8.736;2023-11-21T01:05:05;96051.03;;;7.05;100.00
70954;BME280;58618;47.490;8.736;2023-11-21T01:07:54;96056.94;;;7.01;100.00
70954;BME280;58618;47.490;8.736;2023-11-21T01:10:42;96055.16;;;6.96;100.00
70954;BME280;58618;47.490;8.736;2023-11-21T01:13:30;96055.63;;;7.03;100.00
70954;BME280;58618;47.490;8.736;2023-11-21T01:16:18;96048.50;;;6.95;100.00
70954;BME280;58618;47.490;8.736;2023-11-21T01:19:06;96051.59;;;6.87;100.00
70954;BME280;58618;47.490;8.736;2023-11-21T01:21:53;96050.03;;;6.96;100.00
70954;BME280;58618;47.490;8.736;2023-11-21T01:24:40;96050.78;;;6.97;100.00
70954;BME280;58618;47.490;8.736;2023-11-21T01:27:28;96047.97;;;7.08;100.00
70954;BME280;58618;47.490;8.736;2023-11-21T01:30:15;96046.47;;;6.87;100.00
70954;BME280;58618;47.490;8.736;2023-11-21T01:33:04;96039.22;;;7.09;100.00
70954;BME280;58618;47.490;8.736;2023-11-21T01:35:52;96046.91;;;7.04;100.00
70954;BME280;58618;47.490;8.736;2023-11-21T01:38:40;96032.06;;;7.01;100.00
70954;BME280;58618;47.490;8.736;2023-11-21T01:41:28;96047.22;;;6.98;100.00
70954;BME280;58618;47.490;8.736;2023-11-21T01:44:16;96042.81;;;7.08;100.00
70954;BME280;58618;47.490;8.736;2023-11-21T01:47:05;96043.34;;;7.00;100.00
70954;BME280;58618;47.490;8.736;2023-11-21T01:49:54;96041.31;;;6.97;100.00
70954;BME280;58618;47.490;8.736;2023-11-21T01:52:42;96051.03;;;7.00;100.00
70954;BME280;58618;47.490;8.736;2023-11-21T01:55:31;96044.63;;;7.03;100.00
70954;BME280;58618;47.490;8.736;2023-11-21T01:58:19;96038.75;;;6.82;100.00
70954;BME280;58618;47.490;8.736;2023-11-21T02:01:07;96035.16;;;6.83;100.00
70954;BME280;58618;47.490;8.736;2023-11-21T02:04:24;96022.84;;;7.00;100.00
70954;BME280;58618;47.490;8.736;2023-11-21T02:11:06;96042.81;;;6.98;100.00
70954;BME280;58618;47.490;8.736;2023-11-21T02:13:53;96045.41;;;6.83;100.00
70954;BME280;58618;47.490;8.736;2023-11-21T02:16:41;96035.16;;;6.83;100.00
70954;BME280;58618;47.490;8.736;2023-11-21T02:19:32;96042.31;;;7.01;100.00
70954;BME280;58618;47.490;8.736;2023-11-21T02:22:20;96036.94;;;6.93;100.00
70954;BME280;58618;47.490;8.736;2023-11-21T02:25:10;96017.75;;;6.85;100.00
70954;BME280;58618;47.490;8.736;2023-11-21T02:27:58;96043.88;;;6.97;100.00
70954;BME280;58618;47.490;8.736;2023-11-21T02:30:46;96041.56;;;7.01;100.00
70954;BME280;58618;47.490;8.736;2023-11-21T02:33:41;96046.41;;;7.12;100.00
70954;BME280;58618;47.490;8.736;2023-11-21T02:36:29;96041.31;;;7.02;100.00
70954;BME280;58618;47.490;8.736;2023-11-21T02:39:17;96041.81;;;6.94;100.00
70954;BME280;58618;47.490;8.736;2023-11-21T02:42:09;96045.41;;;6.93;100.00
70954;BME280;58618;47.490;8.736;2023-11-21T02:44:56;96045.94;;;6.90;100.00
70954;BME280;58618;47.490;8.736;2023-11-21T02:47:44;96046.16;;;6.94;100.00
70954;BME280;58618;47.490;8.736;2023-11-21T02:50:31;96044.16;;;6.86;100.00
70954;BME280;58618;47.490;8.736;2023-11-21T02:53:19;96047.94;;;6.98;100.00
70954;BME280;58618;47.490;8.736;2023-11-21T02:56:07;96051.06;;;6.95;100.00
70954;BME280;58618;47.490;8.736;2023-11-21T02:58:56;96044.38;;;6.89;100.00
70954;BME280;58618;47.490;8.736;2023-11-21T03:01:44;96041.56;;;6.96;100.00
70954;BME280;58618;47.490;8.736;2023-11-21T03:04:31;96041.03;;;6.94;100.00
70954;BME280;58618;47.490;8.736;2023-11-21T03:07:20;96044.66;;;6.83;100.00
70954;BME280;58618;47.490;8.736;2023-11-21T03:10:08;96038.75;;;6.82;100.00
70954;BME280;58618;47.490;8.736;2023-11-21T03:12:57;96041.34;;;6.87;100.00
70954;BME280;58618;47.490;8.736;2023-11-21T03:15:45;96040.31;;;6.83;100.00
70954;BME280;58618;47.490;8.736;2023-11-21T03:18:33;96039.28;;;6.84;100.00
70954;BME280;58618;47.490;8.736;2023-11-21T03:21:20;96038.50;;;6.78;100.00
70954;BME280;58618;47.490;8.736;2023-11-21T03:24:08;96025.72;;;6.63;100.00
70954;BME280;58618;47.490;8.736;2023-11-21T03:26:55;96031.09;;;6.67;100.00
70954;BME280;58618;47.490;8.736;2023-11-21T03:29:43;96036.50;;;6.70;100.00
70954;BME280;58618;47.490;8.736;2023-11-21T03:32:33;96028.53;;;6.57;100.00
70954;BME280;58618;47.490;8.736;2023-11-21T03:35:21;96030.63;;;6.40;100.00
70954;BME280;58618;47.490;8.736;2023-11-21T03:38:09;96032.13;;;6.46;100.00
70954;BME280;58618;47.490;8.736;2023-11-21T03:40:58;96029.06;;;6.59;100.00
70954;BME280;58618;47.490;8.736;2023-11-21T03:43:45;96039.81;;;6.76;100.00
70954;BME280;58618;47.490;8.736;2023-11-21T03:46:32;96040.88;;;6.50;100.00
70954;BME280;58618;47.490;8.736;2023-11-21T03:49:21;96041.88;;;6.64;100.00
70954;BME280;58618;47.490;8.736;2023-11-21T03:52:10;96036.25;;;6.36;100.00
70954;BME280;58618;47.490;8.736;2023-11-21T03:54:57;96034.19;;;6.49;100.00
70954;BME280;58618;47.490;8.736;2023-11-21T03:57:45;96031.66;;;6.44;100.00
70954;BME280;58618;47.490;8.736;2023-11-21T04:00:32;96031.41;;;6.50;100.00
70954;BME280;58618;47.490;8.736;2023-11-21T04:03:19;96044.69;;;6.57;100.00
70954;BME280;58618;47.490;8.736;2023-11-21T04:06:08;96037.00;;;6.47;100.00
70954;BME280;58618;47.490;8.736;2023-11-21T04:08:56;96044.69;;;6.42;100.00
70954;BME280;58618;47.490;8.736;2023-11-21T04:11:43;96037.78;;;6.27;100.00
70954;BME280;58618;47.490;8.736;2023-11-21T04:14:31;96040.09;;;6.39;100.00
70954;BME280;58618;47.490;8.736;2023-11-21T04:17:19;96028.31;;;6.43;100.00
70954;BME280;58618;47.490;8.736;2023-11-21T04:20:07;96024.47;;;6.20;100.00
70954;BME280;58618;47.490;8.736;2023-11-21T04:22:57;96020.38;;;6.19;100.00
70954;BME280;58618;47.490;8.736;2023-11-21T04:25:44;96022.69;;;6.21;100.00
70954;BME280;58618;47.490;8.736;2023-11-21T04:28:32;96027.03;;;6.30;100.00
70954;BME280;58618;47.490;8.736;2023-11-21T04:31:19;96023.69;;;6.30;100.00
70954;BME280;58618;47.490;8.736;2023-11-21T04:34:07;96018.06;;;6.23;100.00
70954;BME280;58618;47.490;8.736;2023-11-21T04:36:54;96019.88;;;6.22;100.00
70954;BME280;58618;47.490;8.736;2023-11-21T04:39:43;96030.59;;;6.24;100.00
70954;BME280;58618;47.490;8.736;2023-11-21T04:42:30;96032.41;;;6.34;100.00
70954;BME280;58618;47.490;8.736;2023-11-21T04:45:17;96034.97;;;6.34;100.00
70954;BME280;58618;47.490;8.736;2023-11-21T04:48:05;96033.69;;;6.36;100.00
70954;BME280;58618;47.490;8.736;2023-11-21T04:50:52;96032.91;;;6.41;100.00
70954;BME280;58618;47.490;8.736;2023-11-21T04:53:40;96030.63;;;6.40;100.00
70954;BME280;58618;47.490;8.736;2023-11-21T04:56:28;96033.19;;;6.45;100.00
70954;BME280;58618;47.490;8.736;2023-11-21T04:59:16;96043.44;;;6.45;100.00
70954;BME280;58618;47.490;8.736;2023-11-21T05:02:04;96032.66;;;6.53;100.00
70954;BME280;58618;47.490;8.736;2023-11-21T05:04:51;96027.78;;;6.46;100.00
70954;BME280;58618;47.490;8.736;2023-11-21T05:07:39;96033.66;;;6.57;100.00
70954;BME280;58618;47.490;8.736;2023-11-21T05:10:27;96038.03;;;6.51;100.00
70954;BME280;58618;47.490;8.736;2023-11-21T05:13:16;96032.66;;;6.48;100.00
70954;BME280;58618;47.490;8.736;2023-11-21T05:16:04;96041.38;;;6.47;100.00
70954;BME280;58618;47.490;8.736;2023-11-21T05:18:52;96035.75;;;6.50;100.00
70954;BME280;58618;47.490;8.736;2023-11-21T05:21:42;96051.88;;;6.45;100.00
70954;BME280;58618;47.490;8.736;2023-11-21T05:24:30;96050.59;;;6.53;100.00
70954;BME280;58618;47.490;8.736;2023-11-21T05:27:17;96046.00;;;6.45;100.00
70954;BME280;58618;47.490;8.736;2023-11-21T05:30:07;96053.94;;;6.53;100.00
70954;BME280;58618;47.490;8.736;2023-11-21T05:32:57;96054.69;;;6.59;100.00
70954;BME280;58618;47.490;8.736;2023-11-21T05:35:45;96059.28;;;6.62;100.00
70954;BME280;58618;47.490;8.736;2023-11-21T05:38:32;96069.03;;;6.65;100.00
70954;BME280;58618;47.490;8.736;2023-11-21T05:41:20;96064.94;;;6.59;100.00
70954;BME280;58618;47.490;8.736;2023-11-21T05:44:07;96072.63;;;6.64;100.00
70954;BME280;58618;47.490;8.736;2023-11-21T05:46:56;96069.03;;;6.65;100.00
70954;BME280;58618;47.490;8.736;2023-11-21T05:49:44;96050.84;;;6.51;100.00
70954;BME280;58618;47.490;8.736;2023-11-21T05:52:36;96076.47;;;6.46;100.00
70954;BME280;58618;47.490;8.736;2023-11-21T05:55:24;96076.22;;;6.43;100.00
70954;BME280;58618;47.490;8.736;2023-11-21T05:58:11;96066.22;;;6.46;100.00
70954;BME280;58618;47.490;8.736;2023-11-21T06:00:59;96071.63;;;6.45;100.00
70954;BME280;58618;47.490;8.736;2023-11-21T06:03:48;96077.47;;;6.45;100.00
70954;BME280;58618;47.490;8.736;2023-11-21T06:06:35;96087.47;;;6.57;100.00
70954;BME280;58618;47.490;8.736;2023-11-21T06:09:23;96088.25;;;6.67;100.00
70954;BME280;58618;47.490;8.736;2023-11-21T06:12:11;96085.19;;;6.65;100.00
70954;BME280;58618;47.490;8.736;2023-11-21T06:14:58;96082.34;;;6.67;100.00
70954;BME280;58618;47.490;8.736;2023-11-21T06:17:46;96092.09;;;6.75;100.00
70954;BME280;58618;47.490;8.736;2023-11-21T06:20:39;96093.13;;;6.74;100.00
70954;BME280;58618;47.490;8.736;2023-11-21T06:23:26;96089.25;;;6.61;100.00
70954;BME280;58618;47.490;8.736;2023-11-21T06:26:14;96094.13;;;6.63;100.00
70954;BME280;58618;47.490;8.736;2023-11-21T06:29:01;96096.47;;;6.59;100.00
70954;BME280;58618;47.490;8.736;2023-11-21T06:31:49;96100.56;;;6.55;100.00
70954;BME280;58618;47.490;8.736;2023-11-21T06:34:37;96093.88;;;6.69;100.00
70954;BME280;58618;47.490;8.736;2023-11-21T06:37:26;96098.25;;;6.64;100.00
70954;BME280;58618;47.490;8.736;2023-11-21T06:40:14;96106.69;;;6.74;100.00
70954;BME280;58618;47.490;8.736;2023-11-21T06:43:02;96083.41;;;6.61;100.00
70954;BME280;58618;47.490;8.736;2023-11-21T06:45:51;96102.59;;;6.84;100.00
70954;BME280;58618;47.490;8.736;2023-11-21T06:48:39;96101.34;;;6.66;100.00
70954;BME280;58618;47.490;8.736;2023-11-21T06:51:27;96109.03;;;6.71;100.00
70954;BME280;58618;47.490;8.736;2023-11-21T06:54:15;96104.91;;;6.65;100.00
70954;BME280;58618;47.490;8.736;2023-11-21T06:57:03;96105.69;;;6.50;100.00
70954;BME280;58618;47.490;8.736;2023-11-21T06:59:50;96111.56;;;6.46;100.00
70954;BME280;58618;47.490;8.736;2023-11-21T07:02:38;96080.03;;;6.20;100.00
70954;BME280;58618;47.490;8.736;2023-11-21T07:05:26;96092.59;;;6.47;100.00
70954;BME280;58618;47.490;8.736;2023-11-21T07:08:13;96097.72;;;6.47;100.00
70954;BME280;58618;47.490;8.736;2023-11-21T07:11:03;96091.56;;;6.38;100.00
70954;BME280;58618;47.490;8.736;2023-11-21T07:16:19;96119.00;;;6.62;100.00
70954;BME280;58618;47.490;8.736;2023-11-21T07:19:07;96119.25;;;6.81;100.00
70954;BME280;58618;47.490;8.736;2023-11-21T07:22:15;96115.41;;;6.89;100.00
70954;BME280;58618;47.490;8.736;2023-11-21T07:25:10;96129.50;;;7.01;100.00
70954;BME280;58618;47.490;8.736;2023-11-21T07:27:59;96128.47;;;6.97;100.00
70954;BME280;58618;47.490;8.736;2023-11-21T07:30:47;96133.63;;;6.97;100.00
70954;BME280;58618;47.490;8.736;2023-11-21T07:33:34;96138.44;;;7.09;100.00
70954;BME280;58618;47.490;8.736;2023-11-21T07:36:22;96127.94;;;7.10;100.00
70954;BME280;58618;47.490;8.736;2023-11-21T07:39:09;96134.09;;;7.14;100.00
70954;BME280;58618;47.490;8.736;2023-11-21T07:41:57;96138.22;;;7.00;100.00
70954;BME280;58618;47.490;8.736;2023-11-21T07:47:21;96137.16;;;7.16;100.00
70954;BME280;58618;47.490;8.736;2023-11-21T07:50:13;96133.59;;;7.17;100.00
70954;BME280;58618;47.490;8.736;2023-11-21T07:53:00;96148.72;;;7.24;100.00
70954;BME280;58618;47.490;8.736;2023-11-21T07:55:48;96146.16;;;7.19;100.00
70954;BME280;58618;47.490;8.736;2023-11-21T07:58:35;96145.38;;;7.29;100.00
70954;BME280;58618;47.490;8.736;2023-11-21T08:01:23;96129.19;;;7.38;100.00
70954;BME280;58618;47.490;8.736;2023-11-21T08:04:12;96137.63;;;7.44;100.00
70954;BME280;58618;47.490;8.736;2023-11-21T08:06:59;96137.06;;;7.52;100.00
70954;BME280;58618;47.490;8.736;2023-11-21T08:09:48;96142.94;;;7.68;100.00
70954;BME280;58618;47.490;8.736;2023-11-21T08:12:36;96136.47;;;7.80;100.00
70954;BME280;58618;47.490;8.736;2023-11-21T08:15:24;96128.88;;;8.09;100.00
70954;BME280;58618;47.490;8.736;2023-11-21T08:18:12;96128.59;;;8.16;100.00
70954;BME280;58618;47.490;8.736;2023-11-21T08:21:02;96133.94;;;8.29;100.00
70954;BME280;58618;47.490;8.736;2023-11-21T08:23:51;96130.38;;;8.64;100.00
70954;BME280;58618;47.490;8.736;2023-11-21T08:26:40;96138.13;;;8.59;100.00
70954;BME280;58618;47.490;8.736;2023-11-21T08:29:28;96136.44;;;8.78;100.00
70954;BME280;58618;47.490;8.736;2023-11-21T08:32:20;96140.25;;;8.86;100.00
70954;BME280;58618;47.490;8.736;2023-11-21T08:35:08;96141.91;;;8.72;100.00
70954;BME280;58618;47.490;8.736;2023-11-21T08:38:01;96135.03;;;8.57;100.00
70954;BME280;58618;47.490;8.736;2023-11-21T08:40:51;96152.19;;;8.28;100.00
70954;BME280;58618;47.490;8.736;2023-11-21T08:43:40;96150.69;;;8.17;100.00
70954;BME280;58618;47.490;8.736;2023-11-21T08:46:29;96135.84;;;8.09;100.00
70954;BME280;58618;47.490;8.736;2023-11-21T08:49:17;96154.19;;;8.36;100.00
70954;BME280;58618;47.490;8.736;2023-11-21T08:52:06;96149.75;;;8.02;100.00
70954;BME280;58618;47.490;8.736;2023-11-21T08:55:00;96152.84;;;7.94;100.00
70954;BME280;58618;47.490;8.736;2023-11-21T08:57:53;96163.75;;;7.66;100.00
70954;BME280;58618;47.490;8.736;2023-11-21T09:00:44;96158.28;;;7.78;100.00
70954;BME280;58618;47.490;8.736;2023-11-21T09:03:38;96159.34;;;7.77;100.00
70954;BME280;58618;47.490;8.736;2023-11-21T09:06:26;96161.56;;;8.03;100.00
70954;BME280;58618;47.490;8.736;2023-11-21T09:09:14;96165.84;;;8.18;100.00
70954;BME280;58618;47.490;8.736;2023-11-21T09:12:04;96157.03;;;7.80;100.00
70954;BME280;58618;47.490;8.736;2023-11-21T09:14:52;96154.25;;;7.72;100.00
70954;BME280;58618;47.490;8.736;2023-11-21T09:17:42;96177.34;;;8.31;100.00
70954;BME280;58618;47.490;8.736;2023-11-21T09:20:31;96184.34;;;8.15;100.00
70954;BME280;58618;47.490;8.736;2023-11-21T09:23:25;96159.59;;;7.75;100.00
70954;BME280;58618;47.490;8.736;2023-11-21T09:26:21;96188.63;;;8.40;100.00
70954;BME280;58618;47.490;8.736;2023-11-21T09:29:23;96188.72;;;8.10;100.00
70954;BME280;58618;47.490;8.736;2023-11-21T09:32:14;96160.09;;;7.82;100.00
70954;BME280;58618;47.490;8.736;2023-11-21T09:35:15;96189.31;;;7.96;100.00
70954;BME280;58618;47.490;8.736;2023-11-21T09:38:11;96195.41;;;8.11;100.00
70954;BME280;58618;47.490;8.736;2023-11-21T09:41:00;96195.59;;;8.29;100.00
70954;BME280;58618;47.490;8.736;2023-11-21T09:43:51;96202.78;;;8.32;100.00
70954;BME280;58618;47.490;8.736;2023-11-21T09:46:44;96198.97;;;8.15;100.00
70954;BME280;58618;47.490;8.736;2023-11-21T09:49:35;96195.59;;;8.29;100.00
70954;BME280;58618;47.490;8.736;2023-11-21T09:52:27;96186.59;;;8.27;100.00
70954;BME280;58618;47.490;8.736;2023-11-21T09:55:18;96191.72;;;8.37;100.00
70954;BME280;58618;47.490;8.736;2023-11-21T09:58:08;96196.03;;;8.46;100.00
70954;BME280;58618;47.490;8.736;2023-11-21T10:00:59;96180.59;;;8.46;100.00
70954;BME280;58618;47.490;8.736;2023-11-21T10:03:50;96183.81;;;8.72;100.00
70954;BME280;58618;47.490;8.736;2023-11-21T10:06:44;96191.25;;;8.20;100.00
70954;BME280;58618;47.490;8.736;2023-11-21T10:09:33;96186.75;;;7.96;100.00
70954;BME280;58618;47.490;8.736;2023-11-21T10:12:22;96183.19;;;7.87;100.00
70954;BME280;58618;47.490;8.736;2023-11-21T10:15:12;96180.00;;;8.11;100.00
70954;BME280;58618;47.490;8.736;2023-11-21T10:18:03;96171.75;;;8.19;100.00
70954;BME280;58618;47.490;8.736;2023-11-21T10:20:54;96171.50;;;8.64;100.00
70954;BME280;58618;47.490;8.736;2023-11-21T10:23:42;96169.72;;;8.65;100.00
70954;BME280;58618;47.490;8.736;2023-11-21T10:26:40;96158.75;;;8.49;100.00
70954;BME280;58618;47.490;8.736;2023-11-21T10:29:29;96174.88;;;8.60;100.00
70954;BME280;58618;47.490;8.736;2023-11-21T10:32:16;96174.88;;;8.60;100.00
70954;BME280;58618;47.490;8.736;2023-11-21T10:35:05;96172.22;;;8.75;100.00
70954;BME280;58618;47.490;8.736;2023-11-21T10:38:01;96163.16;;;8.82;100.00
70954;BME280;58618;47.490;8.736;2023-11-21T10:40:52;96162.06;;;8.88;100.00
70954;BME280;58618;47.490;8.736;2023-11-21T10:43:41;96165.69;;;8.87;100.00
70954;BME280;58618;47.490;8.736;2023-11-21T10:46:29;96157.16;;;8.92;100.00
70954;BME280;58618;47.490;8.736;2023-11-21T10:49:17;96178.75;;;9.25;100.00
70954;BME280;58618;47.490;8.736;2023-11-21T10:52:04;96180.31;;;9.21;100.00
70954;BME280;58618;47.490;8.736;2023-11-21T10:54:54;96180.56;;;9.24;100.00
70954;BME280;58618;47.490;8.736;2023-11-21T10:57:41;96175.03;;;9.36;100.00
70954;BME280;58618;47.490;8.736;2023-11-21T11:00:29;96176.03;;;9.11;100.00
70954;BME280;58618;47.490;8.736;2023-11-21T11:03:17;96176.38;;;9.00;100.00
70954;BME280;58618;47.490;8.736;2023-11-21T11:06:05;96180.97;;;9.08;100.00
70954;BME280;58618;47.490;8.736;2023-11-21T11:08:57;96175.97;;;8.87;100.00
70954;BME280;58618;47.490;8.736;2023-11-21T11:11:46;96173.13;;;8.89;100.00
70954;BME280;58618;47.490;8.736;2023-11-21T11:14:35;96151.94;;;8.68;100.00
70954;BME280;58618;47.490;8.736;2023-11-21T11:17:26;96173.59;;;8.57;100.00
70954;BME280;58618;47.490;8.736;2023-11-21T11:20:16;96170.91;;;8.77;100.00
70954;BME280;58618;47.490;8.736;2023-11-21T11:23:22;96158.84;;;8.73;100.00
70954;BME280;58618;47.490;8.736;2023-11-21T11:26:24;96171.03;;;9.25;100.00
70954;BME280;58618;47.490;8.736;2023-11-21T11:29:24;96161.69;;;9.34;100.00
70954;BME280;58618;47.490;8.736;2023-11-21T11:32:21;96151.88;;;9.36;100.00
70954;BME280;58618;47.490;8.736;2023-11-21T11:35:19;96172.59;;;9.73;100.00
70954;BME280;58618;47.490;8.736;2023-11-21T11:38:09;96173.38;;;9.74;100.00
70954;BME280;58618;47.490;8.736;2023-11-21T11:40:57;96163.25;;;9.83;100.00
70954;BME280;58618;47.490;8.736;2023-11-21T11:43:48;96162.84;;;9.70;100.00
70954;BME280;58618;47.490;8.736;2023-11-21T11:46:41;96158.34;;;9.57;100.00
70954;BME280;58618;47.490;8.736;2023-11-21T11:49:32;96165.50;;;9.65;100.00
70954;BME280;58618;47.490;8.736;2023-11-21T11:52:37;96162.41;;;9.63;100.00
70954;BME280;58618;47.490;8.736;2023-11-21T11:55:27;96165.75;;;9.88;100.00
70954;BME280;58618;47.490;8.736;2023-11-21T12:26:44;96163.06;;;9.50;100.00
70954;BME280;58618;47.490;8.736;2023-11-21T12:29:32;96160.97;;;9.28;100.00
70954;BME280;58618;47.490;8.736;2023-11-21T12:32:19;96160.38;;;9.08;100.00
70954;BME280;58618;47.490;8.736;2023-11-21T12:35:08;96167.06;;;9.09;100.00
70954;BME280;58618;47.490;8.736;2023-11-21T12:37:56;96161.53;;;8.92;100.00
70954;BME280;58618;47.490;8.736;2023-11-21T12:40:45;96177.50;;;9.22;100.00
70954;BME280;58618;47.490;8.736;2023-11-21T12:43:34;96189.81;;;9.54;100.00
70954;BME280;58618;47.490;8.736;2023-11-21T12:46:22;96179.28;;;9.74;100.00
70954;BME280;58618;47.490;8.736;2023-11-21T12:49:12;96179.41;;;9.64;100.00
70954;BME280;58618;47.490;8.736;2023-11-21T12:52:08;96180.81;;;9.75;100.00
70954;BME280;58618;47.490;8.736;2023-11-21T12:54:57;96188.75;;;9.55;100.00
70954;BME280;58618;47.490;8.736;2023-11-21T12:57:48;96182.13;;;9.49;100.00
70954;BME280;58618;47.490;8.736;2023-11-21T13:00:43;96165.06;;;9.01;100.00
70954;BME280;58618;47.490;8.736;2023-11-21T13:19:05;96180.38;;;9.16;100.00
70954;BME280;58618;47.490;8.736;2023-11-21T13:21:54;96182.81;;;9.31;100.00
70954;BME280;58618;47.490;8.736;2023-11-21T13:29:39;96184.00;;;9.10;100.00
70954;BME280;58618;47.490;8.736;2023-11-21T13:32:26;96186.53;;;9.20;100.00
70954;BME280;58618;47.490;8.736;2023-11-21T13:35:17;96190.19;;;9.14;100.00
70954;BME280;58618;47.490;8.736;2023-11-21T13:38:08;96196.91;;;9.05;100.00
70954;BME280;58618;47.490;8.736;2023-11-21T13:40:56;96202.03;;;9.10;100.00
70954;BME280;58618;47.490;8.736;2023-11-21T13:43:44;96197.06;;;8.84;100.00
70954;BME280;58618;47.490;8.736;2023-11-21T13:46:38;96196.16;;;9.04;100.00
70954;BME280;58618;47.490;8.736;2023-11-21T13:49:26;96197.56;;;8.92;100.00
70954;BME280;58618;47.490;8.736;2023-11-21T13:52:15;96209.59;;;8.96;100.00
70954;BME280;58618;47.490;8.736;2023-11-21T13:55:03;96209.88;;;8.95;100.00
70954;BME280;58618;47.490;8.736;2023-11-21T13:57:53;96216.66;;;8.80;100.00
70954;BME280;58618;47.490;8.736;2023-11-21T14:00:40;96218.47;;;8.80;100.00
70954;BME280;58618;47.490;8.736;2023-11-21T14:03:31;96218.53;;;8.70;100.00
70954;BME280;58618;47.490;8.736;2023-11-21T14:06:25;96218.78;;;8.68;100.00
70954;BME280;58618;47.490;8.736;2023-11-21T14:09:22;96224.94;;;8.67;100.00
70954;BME280;58618;47.490;8.736;2023-11-21T14:12:21;96221.38;;;8.63;100.00
70954;BME280;58618;47.490;8.736;2023-11-21T14:15:14;96224.38;;;8.80;100.00
70954;BME280;58618;47.490;8.736;2023-11-21T14:18:04;96226.97;;;8.75;100.00
70954;BME280;58618;47.490;8.736;2023-11-21T14:20:56;96216.25;;;8.63;100.00
70954;BME280;58618;47.490;8.736;2023-11-21T14:23:43;96224.91;;;8.77;100.00
70954;BME280;58618;47.490;8.736;2023-11-21T14:26:33;96234.22;;;8.68;100.00
70954;BME280;58618;47.490;8.736;2023-11-21T14:29:21;96230.91;;;8.63;100.00
70954;BME280;58618;47.490;8.736;2023-11-21T14:32:09;96235.84;;;8.54;100.00
70954;BME280;58618;47.490;8.736;2023-11-21T14:34:57;96238.91;;;8.61;100.00
70954;BME280;58618;47.490;8.736;2023-11-21T14:37:45;96244.06;;;8.56;100.00
70954;BME280;58618;47.490;8.736;2023-11-21T14:40:32;96240.53;;;8.37;100.00
70954;BME280;58618;47.490;8.736;2023-11-21T14:43:23;96242.09;;;8.28;100.00
70954;BME280;58618;47.490;8.736;2023-11-21T14:46:12;96252.44;;;8.13;100.00
70954;BME280;58618;47.490;8.736;2023-11-21T14:49:03;96257.56;;;8.13;100.00
70954;BME280;58618;47.490;8.736;2023-11-21T14:52:05;96251.88;;;8.21;100.00
70954;BME280;58618;47.490;8.736;2023-11-21T14:55:04;96253.38;;;8.37;100.00
70954;BME280;58618;47.490;8.736;2023-11-21T14:58:07;96245.44;;;8.28;100.00
70954;BME280;58618;47.490;8.736;2023-11-21T15:01:00;96254.19;;;8.27;100.00
70954;BME280;58618;47.490;8.736;2023-11-21T15:03:46;96257.56;;;8.13;100.00
70954;BME280;58618;47.490;8.736;2023-11-21T15:06:36;96249.91;;;7.97;100.00
70954;BME280;58618;47.490;8.736;2023-11-21T15:09:27;96258.41;;;7.98;100.00
70954;BME280;58618;47.490;8.736;2023-11-21T15:12:27;96267.66;;;7.89;100.00
70954;BME280;58618;47.490;8.736;2023-11-21T15:15:19;96265.59;;;7.86;100.00
70954;BME280;58618;47.490;8.736;2023-11-21T15:18:09;96269.94;;;8.00;100.00
70954;BME280;58618;47.490;8.736;2023-11-21T15:20:58;96278.66;;;7.99;100.00
70954;BME280;58618;47.490;8.736;2023-11-21T15:23:46;96281.03;;;7.81;100.00
70954;BME280;58618;47.490;8.736;2023-11-21T15:26:34;96282.28;;;7.88;100.00
70954;BME280;58618;47.490;8.736;2023-11-21T15:29:21;96285.88;;;8.02;100.00
70954;BME280;58618;47.490;8.736;2023-11-21T15:32:09;96292.03;;;8.01;100.00
70954;BME280;58618;47.490;8.736;2023-11-21T15:34:58;96284.84;;;7.83;100.00
70954;BME280;58618;47.490;8.736;2023-11-21T15:37:46;96290.50;;;7.85;100.00
70954;BME280;58618;47.490;8.736;2023-11-21T15:40:33;96295.13;;;8.03;100.00
70954;BME280;58618;47.490;8.736;2023-11-21T15:43:21;96291.50;;;7.94;100.00
70954;BME280;58618;47.490;8.736;2023-11-21T15:46:08;96291.03;;;7.87;100.00
70954;BME280;58618;47.490;8.736;2023-11-21T15:48:56;96281.28;;;7.79;100.00
70954;BME280;58618;47.490;8.736;2023-11-21T15:51:45;96294.38;;;7.78;100.00
70954;BME280;58618;47.490;8.736;2023-11-21T15:54:33;96288.50;;;7.77;100.00